createdAt,value
2022-10-06T00:00:15.223Z,16.49
2022-10-06T00:16:29.598Z,16.40
2022-10-06T00:19:02.596Z,16.39
2022-10-06T00:21:29.165Z,16.40
2022-10-06T00:24:09.527Z,16.37
2022-10-06T00:26:42.571Z,16.37
2022-10-06T00:29:09.135Z,16.36
2022-10-06T00:31:51.518Z,16.34
2022-10-06T00:45:03.525Z,16.21
2022-10-06T00:47:38.703Z,16.20
2022-10-06T00:50:13.498Z,16.17
2022-10-06T00:52:47.590Z,16.17
2022-10-06T00:55:23.097Z,16.18
2022-10-06T01:09:18.511Z,16.17
2022-10-06T01:11:59.518Z,16.18
2022-10-06T01:14:41.516Z,16.20
2022-10-06T01:17:21.723Z,16.22
2022-10-06T01:20:06.513Z,16.22
2022-10-06T01:22:54.222Z,16.23
2022-10-06T01:25:35.735Z,16.24
2022-10-06T01:36:05.475Z,16.23
2022-10-06T01:38:47.498Z,16.21
2022-10-06T01:41:21.789Z,16.22
2022-10-06T01:43:55.482Z,16.22
2022-10-06T01:46:29.656Z,16.20
2022-10-06T01:49:03.514Z,16.19
2022-10-06T01:51:36.561Z,16.19
2022-10-06T02:04:25.490Z,16.17
2022-10-06T02:07:05.516Z,16.15
2022-10-06T02:09:42.985Z,16.15
2022-10-06T02:12:23.487Z,16.14
2022-10-06T02:14:56.657Z,16.13
2022-10-06T02:31:14.587Z,16.08
2022-10-06T02:33:47.609Z,16.06
2022-10-06T02:36:23.497Z,16.04
2022-10-06T02:38:56.585Z,16.03
2022-10-06T02:41:30.494Z,16.02
2022-10-06T02:44:04.198Z,16.00
2022-10-06T02:46:39.569Z,16.01
2022-10-06T02:56:26.462Z,15.92
2022-10-06T02:59:06.526Z,15.92
2022-10-06T03:01:43.612Z,15.91
2022-10-06T03:04:26.847Z,15.90
2022-10-06T03:06:59.571Z,15.87
2022-10-06T03:09:37.478Z,15.88
2022-10-06T03:12:10.593Z,15.87
2022-10-06T03:25:02.475Z,15.81
2022-10-06T03:27:42.505Z,15.78
2022-10-06T03:30:15.993Z,15.77
2022-10-06T03:32:49.519Z,15.75
2022-10-06T03:35:22.877Z,15.74
2022-10-06T03:51:41.491Z,15.73
2022-10-06T03:54:25.031Z,15.73
2022-10-06T03:57:20.471Z,15.75
2022-10-06T03:59:54.801Z,15.75
2022-10-06T04:02:27.581Z,15.76
2022-10-06T04:05:00.587Z,15.74
2022-10-06T04:17:50.472Z,15.68
2022-10-06T04:20:30.497Z,15.66
2022-10-06T04:23:04.547Z,15.67
2022-10-06T04:25:38.482Z,15.68
2022-10-06T04:28:12.901Z,15.66
2022-10-06T04:30:46.514Z,15.64
2022-10-06T04:43:59.521Z,15.59
2022-10-06T04:46:43.808Z,15.59
2022-10-06T04:49:26.498Z,15.55
2022-10-06T04:51:59.927Z,15.55
2022-10-06T04:54:36.494Z,15.54
2022-10-06T04:57:09.678Z,15.54
2022-10-06T05:10:12.468Z,15.53
2022-10-06T05:12:54.282Z,15.53
2022-10-06T05:15:27.848Z,15.51
2022-10-06T05:18:01.505Z,15.52
2022-10-06T05:20:34.828Z,15.52
2022-10-06T05:23:12.486Z,15.51
2022-10-06T05:25:52.449Z,15.48
2022-10-06T05:38:48.460Z,15.48
2022-10-06T05:41:32.472Z,15.47
2022-10-06T05:44:08.636Z,15.51
2022-10-06T05:46:44.491Z,15.53
2022-10-06T05:49:18.814Z,15.54
2022-10-06T05:51:57.510Z,15.54
2022-10-06T06:05:12.485Z,15.63
2022-10-06T06:07:45.855Z,15.67
2022-10-06T06:10:19.498Z,15.69
2022-10-06T06:12:53.469Z,15.70
2022-10-06T06:15:45.079Z,15.73
2022-10-06T06:32:21.447Z,15.81
2022-10-06T06:35:02.757Z,15.84
2022-10-06T06:37:35.651Z,15.84
2022-10-06T06:40:09.485Z,15.85
2022-10-06T06:42:42.586Z,15.86
2022-10-06T06:45:42.525Z,15.87
2022-10-06T06:59:02.543Z,15.94
2022-10-06T07:01:37.099Z,15.95
2022-10-06T07:04:11.471Z,15.97
2022-10-06T07:06:46.406Z,16.00
2022-10-06T07:09:19.479Z,16.01
2022-10-06T07:11:58.123Z,16.03
2022-10-06T07:24:54.433Z,16.07
2022-10-06T07:27:35.510Z,16.08
2022-10-06T07:30:14.595Z,16.11
2022-10-06T07:32:59.477Z,16.13
2022-10-06T07:35:33.679Z,16.13
2022-10-06T07:51:49.496Z,16.17
2022-10-06T07:54:27.153Z,16.17
2022-10-06T07:57:28.515Z,16.18
2022-10-06T08:00:03.583Z,16.18
2022-10-06T08:02:44.530Z,16.19
2022-10-06T08:05:17.583Z,16.18
2022-10-06T08:18:21.410Z,16.12
2022-10-06T08:21:07.491Z,16.10
2022-10-06T08:23:42.015Z,16.09
2022-10-06T08:26:17.558Z,16.07
2022-10-06T08:28:53.673Z,16.06
2022-10-06T08:31:29.545Z,16.06
2022-10-06T08:44:49.481Z,16.06
2022-10-06T08:47:27.758Z,16.04
2022-10-06T08:50:10.470Z,16.04
2022-10-06T08:53:02.673Z,16.06
2022-10-06T08:55:51.486Z,16.06
2022-10-06T09:12:40.446Z,16.13
2022-10-06T09:15:37.618Z,16.14
2022-10-06T09:18:20.882Z,16.16
2022-10-06T09:21:07.496Z,16.17
2022-10-06T09:23:49.523Z,16.18
2022-10-06T09:26:36.738Z,16.19
2022-10-06T09:39:51.511Z,16.36
2022-10-06T09:42:29.274Z,16.40
2022-10-06T09:45:12.473Z,16.44
2022-10-06T09:47:45.839Z,16.47
2022-10-06T09:50:27.483Z,16.49
2022-10-06T10:04:27.492Z,16.66
2022-10-06T10:07:15.063Z,16.72
2022-10-06T10:09:55.698Z,16.78
2022-10-06T10:12:33.759Z,16.84
2022-10-06T10:15:34.502Z,16.89
2022-10-06T10:18:13.559Z,16.98
2022-10-06T10:21:02.455Z,17.03
2022-10-06T10:31:15.532Z,17.29
2022-10-06T10:34:23.915Z,17.44
2022-10-06T10:37:08.517Z,17.61
2022-10-06T10:39:58.481Z,17.73
2022-10-06T10:42:43.841Z,17.87
2022-10-06T10:45:30.455Z,18.01
2022-10-06T10:58:46.469Z,18.45
2022-10-06T11:01:31.908Z,18.50
2022-10-06T11:04:17.479Z,18.58
2022-10-06T11:07:08.984Z,18.69
2022-10-06T11:10:02.482Z,18.81
2022-10-06T11:27:08.496Z,19.31
2022-10-06T11:30:07.735Z,19.39
2022-10-06T11:32:58.846Z,19.43
2022-10-06T11:35:43.492Z,19.45
2022-10-06T11:38:27.462Z,19.51
2022-10-06T11:41:16.550Z,19.56
2022-10-06T11:51:42.447Z,19.73
2022-10-06T11:54:58.794Z,19.78
2022-10-06T11:57:33.609Z,19.85
2022-10-06T12:00:51.494Z,19.90
2022-10-06T12:04:07.943Z,19.98
2022-10-06T12:07:13.465Z,20.07
2022-10-06T12:20:35.485Z,20.42
2022-10-06T12:23:30.192Z,20.52
2022-10-06T12:26:29.477Z,20.62
2022-10-06T12:29:27.771Z,20.72
2022-10-06T12:32:27.066Z,20.82
2022-10-06T12:45:46.106Z,21.25
2022-10-06T12:48:28.327Z,21.33
2022-10-06T12:51:30.527Z,21.45
2022-10-06T12:54:14.591Z,21.61
2022-10-06T12:57:05.458Z,21.70
2022-10-06T12:59:38.510Z,21.65
2022-10-06T13:02:19.537Z,21.57
2022-10-06T13:12:03.447Z,21.36
2022-10-06T13:14:43.462Z,21.28
2022-10-06T13:17:19.596Z,21.15
2022-10-06T13:19:52.508Z,21.22
2022-10-06T13:22:26.582Z,21.38
2022-10-06T13:25:06.490Z,21.67
2022-10-06T13:38:28.750Z,21.83
2022-10-06T13:41:05.214Z,21.63
2022-10-06T13:43:51.481Z,21.47
2022-10-06T13:46:29.128Z,21.34
2022-10-06T13:49:23.473Z,21.28
2022-10-06T13:52:01.430Z,21.25
2022-10-06T14:05:31.456Z,21.25
2022-10-06T14:08:28.470Z,21.34
2022-10-06T14:11:05.766Z,21.41
2022-10-06T14:13:54.453Z,21.55
2022-10-06T14:16:28.909Z,21.67
2022-10-06T14:19:04.465Z,21.80
2022-10-06T14:21:41.572Z,22.02
2022-10-06T14:31:55.489Z,23.09
2022-10-06T14:34:28.710Z,23.56
2022-10-06T14:37:03.470Z,24.13
2022-10-06T14:39:36.805Z,24.68
2022-10-06T14:42:17.723Z,25.06
2022-10-06T14:44:50.501Z,25.38
2022-10-06T14:47:17.038Z,25.57
2022-10-06T15:00:16.443Z,26.59
2022-10-06T15:02:56.561Z,26.68
2022-10-06T15:05:30.366Z,26.70
2022-10-06T15:08:03.513Z,26.68
2022-10-06T15:10:37.796Z,26.60
2022-10-06T15:26:56.884Z,25.07
2022-10-06T15:29:29.980Z,24.71
2022-10-06T15:32:03.484Z,24.38
2022-10-06T15:34:36.509Z,23.98
2022-10-06T15:37:11.495Z,23.63
2022-10-06T15:39:44.829Z,23.26
2022-10-06T15:42:20.982Z,22.97
2022-10-06T15:52:09.437Z,22.10
2022-10-06T15:54:49.498Z,21.93
2022-10-06T15:57:24.935Z,21.77
2022-10-06T15:59:58.479Z,21.61
2022-10-06T16:02:38.791Z,21.46
2022-10-06T16:05:20.486Z,21.31
2022-10-06T16:18:56.481Z,20.72
2022-10-06T16:21:31.150Z,20.61
2022-10-06T16:24:05.474Z,20.50
2022-10-06T16:26:38.909Z,20.43
2022-10-06T16:29:12.493Z,20.35
2022-10-06T16:31:46.454Z,20.26
2022-10-06T16:48:02.105Z,19.85
2022-10-06T16:50:35.593Z,19.78
2022-10-06T16:56:48.499Z,19.66
2022-10-06T16:59:23.474Z,19.61
2022-10-06T17:12:24.451Z,19.37
2022-10-06T17:15:04.499Z,19.33
2022-10-06T17:17:37.766Z,19.29
2022-10-06T17:20:12.492Z,19.24
2022-10-06T17:22:45.673Z,19.17
2022-10-06T17:25:19.496Z,19.14
2022-10-06T17:39:10.503Z,18.93
2022-10-06T17:41:45.387Z,18.88
2022-10-06T17:44:21.496Z,18.83
2022-10-06T17:46:57.546Z,18.78
2022-10-06T17:49:33.058Z,18.75
2022-10-06T17:52:06.509Z,18.72
2022-10-06T17:54:41.492Z,18.69
2022-10-06T18:07:51.469Z,18.49
2022-10-06T18:10:26.428Z,18.44
2022-10-06T18:12:59.494Z,18.42
2022-10-06T18:15:34.826Z,18.40
2022-10-06T18:18:07.493Z,18.35
2022-10-06T18:20:40.606Z,18.33
2022-10-06T18:36:31.502Z,18.14
2022-10-06T18:39:05.243Z,18.10
2022-10-06T18:41:38.459Z,18.08
2022-10-06T18:44:11.961Z,18.08
2022-10-06T19:00:26.467Z,17.92
2022-10-06T19:02:59.579Z,17.90
2022-10-06T19:05:37.480Z,17.89
2022-10-06T19:08:10.707Z,17.89
2022-10-06T19:10:37.261Z,17.87
2022-10-06T19:13:17.477Z,17.85
2022-10-06T19:15:52.487Z,17.85
2022-10-06T19:26:00.479Z,17.81
2022-10-06T19:28:34.695Z,17.77
2022-10-06T19:31:13.544Z,17.76
2022-10-06T19:33:47.826Z,17.74
2022-10-06T19:36:21.518Z,17.73
2022-10-06T19:38:55.339Z,17.70
2022-10-06T19:55:11.206Z,17.56
2022-10-06T19:57:44.777Z,17.56
2022-10-06T20:00:19.470Z,17.54
2022-10-06T20:02:52.844Z,17.52
2022-10-06T20:05:26.461Z,17.51
2022-10-06T20:22:03.443Z,17.39
2022-10-06T20:24:43.486Z,17.37
2022-10-06T20:27:16.501Z,17.32
2022-10-06T20:29:43.179Z,17.31
2022-10-06T20:32:23.447Z,17.29
2022-10-06T20:34:56.569Z,17.28
2022-10-06T20:47:46.078Z,17.13
2022-10-06T20:50:26.457Z,17.10
2022-10-06T20:52:59.496Z,17.10
2022-10-06T20:55:26.048Z,17.11
2022-10-06T20:58:07.718Z,17.10
2022-10-06T21:00:40.540Z,17.08
2022-10-06T21:13:30.440Z,16.95
2022-10-06T21:16:10.504Z,16.91
2022-10-06T21:18:43.614Z,16.89
2022-10-06T21:21:17.485Z,16.88
2022-10-06T21:23:50.665Z,16.89
2022-10-06T21:39:53.485Z,16.82
2022-10-06T21:42:26.529Z,16.79
2022-10-06T21:44:53.061Z,16.78
2022-10-06T21:47:33.571Z,16.75
2022-10-06T21:50:08.061Z,16.73
2022-10-06T21:52:41.469Z,16.72
2022-10-06T21:55:16.503Z,16.71
2022-10-06T22:08:03.430Z,16.59
2022-10-06T22:10:45.468Z,16.55
2022-10-06T22:13:18.507Z,16.55
2022-10-06T22:15:45.093Z,16.53
2022-10-06T22:18:25.486Z,16.52
2022-10-06T22:20:59.385Z,16.48
2022-10-06T22:33:50.431Z,16.40
2022-10-06T22:36:31.443Z,16.38
2022-10-06T22:39:05.133Z,16.36
2022-10-06T22:41:38.469Z,16.34
2022-10-06T22:44:18.393Z,16.33
2022-10-06T22:46:58.498Z,16.30
2022-10-06T22:49:33.664Z,16.27
2022-10-06T23:02:20.417Z,16.16
2022-10-06T23:05:01.457Z,16.14
2022-10-06T23:07:34.506Z,16.16
2022-10-06T23:10:01.062Z,16.14
2022-10-06T23:12:41.472Z,16.13
2022-10-06T23:15:14.748Z,16.09
2022-10-06T23:28:03.477Z,15.88
2022-10-06T23:30:43.477Z,15.85
2022-10-06T23:33:16.533Z,15.83
2022-10-06T23:35:43.061Z,15.85
2022-10-06T23:38:23.446Z,15.84
2022-10-06T23:40:57.192Z,15.83
2022-10-06T23:53:48.416Z,15.80
2022-10-06T23:56:28.490Z,15.78
2022-10-06T23:59:01.530Z,15.74
